Time;durP1;ratioP1;P1;durP2;ratioP2;P2;SDS_P1;SDS_P2;PMS_P1;PMS_P2;Temp;Humidity;BMP_temperature;BMP_pressure;BME280_temperature;BME280_humidity;BME280_pressure;Samples;Min_cycle;Max_cycle;Signal;HPM_P1;HPM_P2
2023/03/20 00:01:32;;;;;;;21.10;6.10;;;8.50;99.90;;;7.58;100.00;101826.41;4151513;28;20030;-79
2023/03/20 00:03:34;;;;;;;18.77;6.47;;;8.50;99.90;;;7.57;100.00;101829.97;4167906;28;20452;-78
2023/03/20 00:05:35;;;;;;;20.60;5.35;;;8.50;99.90;;;7.56;100.00;101823.03;4151824;28;20030;-79
2023/03/20 00:07:36;;;;;;;12.98;3.92;;;8.50;99.90;;;7.57;100.00;101816.84;4153083;28;20379;-78
2023/03/20 00:09:38;;;;;;;22.70;4.72;;;8.50;99.90;;;7.61;100.00;101818.31;4151461;28;20030;-79
2023/03/20 00:11:51;;;;;;;15.45;4.22;;;8.50;99.90;;;7.61;100.00;101820.09;4152960;28;20379;-79
2023/03/20 00:13:55;;;;;;;12.82;3.38;;;8.50;99.90;;;7.63;100.00;101816.38;4151678;28;20113;-78
2023/03/20 00:15:55;;;;;;;9.07;4.32;;;8.50;99.90;;;7.61;100.00;101813.03;4151476;28;20034;-78
2023/03/20 00:17:57;;;;;;;15.52;4.15;;;8.50;99.90;;;7.64;100.00;101810.19;4152610;28;20045;-78
2023/03/20 00:19:57;;;;;;;10.07;3.78;;;8.60;99.90;;;7.63;100.00;101805.03;4151792;28;20057;-78
2023/03/20 00:21:59;;;;;;;10.75;3.38;;;8.60;99.90;;;7.67;100.00;101812.59;4167920;28;20087;-79
2023/03/20 00:24:00;;;;;;;12.77;3.95;;;8.60;99.90;;;7.70;100.00;101814.16;4151578;28;20037;-78
2023/03/20 00:26:01;;;;;;;14.05;4.22;;;8.60;99.90;;;7.71;100.00;101821.91;4151262;28;20034;-79
2023/03/20 00:28:22;;;;;;;8.18;3.30;;;8.60;99.90;;;7.71;100.00;101827.16;4160357;28;20091;-78
2023/03/20 00:30:32;;;;;;;9.95;3.70;;;8.60;99.90;;;7.74;100.00;101824.31;4151533;28;20057;-78
2023/03/20 00:32:33;;;;;;;10.20;3.72;;;8.60;99.90;;;7.71;100.00;101816.66;4152145;28;20514;-78
2023/03/20 00:34:34;;;;;;;19.17;5.85;;;8.60;99.90;;;7.77;100.00;101825.88;4151466;28;20022;-79
2023/03/20 00:36:35;;;;;;;16.77;6.07;;;8.60;99.90;;;7.77;100.00;101837.22;4152567;28;20440;-78
2023/03/20 00:38:36;;;;;;;14.27;5.10;;;8.70;99.90;;;7.77;100.00;101833.75;4152478;28;20029;-79
2023/03/20 00:40:37;;;;;;;17.27;4.53;;;8.60;99.90;;;7.76;100.00;101839.97;4151231;28;20061;-79
2023/03/20 00:42:38;;;;;;;12.80;4.72;;;8.70;99.90;;;7.77;100.00;101828.50;4152490;28;20041;-79
2023/03/20 00:44:52;;;;;;;13.20;4.25;;;8.70;99.90;;;7.79;100.00;101819.56;4151207;28;20034;-79
2023/03/20 00:47:00;;;;;;;11.35;3.20;;;8.70;99.90;;;7.80;100.00;101821.25;4134896;28;20026;-78
2023/03/20 00:49:02;;;;;;;11.98;3.92;;;8.70;99.90;;;7.83;100.00;101814.94;4152504;28;20038;-78
2023/03/20 00:51:03;;;;;;;13.40;4.22;;;8.70;99.90;;;7.79;100.00;101803.81;4151498;28;20034;-78
2023/03/20 00:53:05;;;;;;;15.80;3.85;;;8.70;99.90;;;7.86;100.00;101808.59;4151308;28;20397;-79
2023/03/20 00:55:06;;;;;;;18.27;4.10;;;8.70;99.90;;;7.86;100.00;101808.59;4151140;28;20022;-78
2023/03/20 00:57:22;;;;;;;13.20;4.95;;;8.70;99.90;;;7.88;100.00;101804.09;4150753;28;20401;-78
2023/03/20 00:59:30;;;;;;;12.07;4.30;;;8.70;99.90;;;7.86;100.00;101803.34;4151160;28;20033;-78
2023/03/20 01:01:31;;;;;;;15.18;4.15;;;8.80;99.90;;;7.85;100.00;101802.53;4150721;28;20034;-78
2023/03/20 01:03:32;;;;;;;13.88;3.60;;;8.80;99.90;;;7.89;100.00;101809.22;4151549;28;20398;-78
2023/03/20 01:05:33;;;;;;;13.68;3.80;;;8.80;99.90;;;7.89;100.00;101803.97;4152501;28;20084;-79
2023/03/20 01:07:34;;;;;;;12.50;2.92;;;8.80;99.90;;;7.94;100.00;101811.53;4152202;28;20409;-79
2023/03/20 01:09:34;;;;;;;15.20;4.30;;;8.80;99.90;;;7.90;100.00;101807.44;4152038;28;20076;-78
2023/03/20 01:11:37;;;;;;;14.23;3.88;;;8.80;99.90;;;7.94;100.00;101811.53;4152421;28;20026;-79
2023/03/20 01:13:40;;;;;;;14.63;4.18;;;8.80;99.90;;;7.94;100.00;101815.00;4151216;28;20038;-78
2023/03/20 01:15:41;;;;;;;22.92;4.32;;;8.80;99.90;;;7.91;100.00;101811.75;4153197;28;20093;-78
2023/03/20 01:17:42;;;;;;;15.15;4.72;;;8.80;99.90;;;7.94;100.00;101812.38;4153957;28;20026;-78
2023/03/20 01:19:43;;;;;;;14.15;3.78;;;8.80;99.90;;;7.93;100.00;101815.09;4154689;28;20095;-79
2023/03/20 01:21:43;;;;;;;13.38;4.05;;;8.80;99.90;;;7.88;100.00;101807.56;4155531;28;20084;-78
2023/03/20 01:23:45;;;;;;;11.07;3.97;;;8.80;99.90;;;7.88;100.00;101811.97;4155465;28;20045;-78
2023/03/20 01:25:45;;;;;;;15.00;4.22;;;8.80;99.90;;;7.86;100.00;101811.22;4155293;28;20025;-78
2023/03/20 01:27:52;;;;;;;10.30;3.65;;;8.80;99.90;;;7.88;100.00;101810.19;4146660;28;20056;-78
2023/03/20 01:29:53;;;;;;;14.63;4.43;;;8.80;99.90;;;7.88;100.00;101806.72;4155339;28;20034;-79
2023/03/20 01:31:54;;;;;;;12.00;3.95;;;8.80;99.90;;;7.88;100.00;101806.72;4153368;28;20029;-79
2023/03/20 01:33:55;;;;;;;15.07;5.25;;;8.80;99.90;;;7.92;100.00;101813.41;4170538;28;20021;-78
2023/03/20 01:35:58;;;;;;;12.55;3.75;;;8.80;99.90;;;7.90;100.00;101797.78;4154255;28;20026;-78
2023/03/20 01:37:59;;;;;;;12.48;3.67;;;8.80;99.90;;;7.92;100.00;101800.28;4154022;28;20029;-78
2023/03/20 01:40:00;;;;;;;11.35;3.95;;;8.80;99.90;;;7.90;100.00;101795.16;4154835;28;20556;-79
2023/03/20 01:42:04;;;;;;;11.40;4.93;;;8.80;99.90;;;7.91;100.00;101791.59;4154846;28;20034;-78
2023/03/20 01:44:24;;;;;;;11.15;3.80;;;8.80;99.90;;;7.94;100.00;101787.88;4153968;28;20034;-78
2023/03/20 01:46:30;;;;;;;12.85;3.72;;;8.80;99.90;;;7.90;100.00;101781.19;4154117;28;20128;-78
2023/03/20 01:48:59;;;;;;;13.75;3.75;;;8.80;99.90;;;7.87;100.00;101779.63;4140014;28;20066;-78
2023/03/20 01:51:00;;;;;;;16.42;3.92;;;8.70;99.90;;;7.84;100.00;101773.75;4136914;28;20048;-79
2023/03/20 01:53:30;;;;;;;17.50;5.60;;;8.70;99.90;;;7.86;100.00;101787.59;4164348;28;20033;-78
2023/03/20 01:55:33;;;;;;;12.00;3.10;;;8.70;99.90;;;7.79;100.00;101785.41;4153527;28;20049;-78
2023/03/20 01:57:34;;;;;;;8.73;3.50;;;8.70;99.90;;;7.79;100.00;101776.72;4152625;28;20413;-78
2023/03/20 01:59:43;;;;;;;16.52;3.42;;;8.70;99.90;;;7.79;100.00;101788.03;4153885;28;20033;-78
2023/03/20 02:01:44;;;;;;;11.93;3.90;;;8.60;99.90;;;7.74;100.00;101787.56;4153384;28;20097;-78
2023/03/20 02:03:48;;;;;;;11.13;4.30;;;8.60;99.90;;;7.67;100.00;101788.97;4170121;28;20034;-78
2023/03/20 02:05:50;;;;;;;9.30;3.90;;;8.60;99.90;;;7.64;100.00;101791.81;4153806;28;20109;-78
2023/03/20 02:08:19;;;;;;;12.60;3.38;;;8.50;99.90;;;7.60;100.00;101787.72;4153598;28;20065;-78
2023/03/20 02:10:21;;;;;;;14.45;3.85;;;8.40;99.90;;;7.53;100.00;101794.38;4145082;28;20038;-78
2023/03/20 02:12:22;;;;;;;11.07;3.40;;;8.40;99.90;;;7.50;100.00;101796.38;4153539;28;20017;-78
2023/03/20 02:14:23;;;;;;;15.50;3.28;;;8.40;99.90;;;7.48;100.00;101799.13;4154691;28;20120;-78
2023/03/20 02:16:24;;;;;;;16.52;4.63;;;8.40;99.90;;;7.45;100.00;101801.97;4153284;28;20075;-79
2023/03/20 02:18:25;;;;;;;14.07;3.38;;;8.30;99.90;;;7.40;100.00;101795.38;4143678;28;20026;-78
2023/03/20 02:21:27;;;;;;;8.10;3.08;;;8.20;99.90;;;7.32;100.00;101808.22;4147933;28;20034;-79
2023/03/20 02:23:48;;;;;;;11.38;3.15;;;8.20;99.90;;;7.24;100.00;101800.84;4143141;28;20105;-78
2023/03/20 02:26:01;;;;;;;10.20;3.63;;;8.10;99.90;;;7.18;100.00;101799.50;4153274;28;20034;-78
2023/03/20 02:28:26;;;;;;;17.00;3.78;;;8.10;99.90;;;7.13;100.00;101796.38;4154374;28;20034;-78
2023/03/20 02:30:42;;;;;;;13.02;3.10;;;8.00;99.90;;;7.07;100.00;101788.94;4154732;28;20030;-79
2023/03/20 02:33:31;;;;;;;12.85;3.55;;;8.00;99.90;;;7.05;100.00;101800.47;4152842;28;20029;-79
2023/03/20 02:35:38;;;;;;;18.65;3.63;;;7.90;99.90;;;7.01;100.00;101793.78;4154575;28;20030;-78
2023/03/20 02:37:47;;;;;;;10.60;3.90;;;7.90;99.90;;;6.94;100.00;101785.50;4154269;28;20037;-78
2023/03/20 02:40:12;;;;;;;13.70;3.20;;;7.80;99.90;;;6.90;100.00;101788.44;4153269;28;20032;-78
2023/03/20 02:42:34;;;;;;;12.20;2.70;;;7.80;99.90;;;6.87;100.00;101783.41;4152966;28;20034;-78
2023/03/20 02:44:43;;;;;;;16.98;4.22;;;7.70;99.90;;;6.81;100.00;101779.41;4154334;28;20037;-79
2023/03/20 02:47:03;;;;;;;16.05;4.03;;;7.70;99.90;;;6.79;100.00;101777.84;4154051;28;20029;-78
2023/03/20 02:49:28;;;;;;;13.15;3.42;;;7.60;99.90;;;6.72;100.00;101768.75;4143549;28;20363;-79
2023/03/20 02:52:01;;;;;;;14.70;3.63;;;7.60;99.90;;;6.68;100.00;101775.97;4153007;28;20025;-79
2023/03/20 02:54:31;;;;;;;9.93;4.40;;;7.50;99.90;;;6.64;100.00;101775.34;4153150;28;20022;-79
2023/03/20 02:56:32;;;;;;;8.10;2.70;;;7.50;99.90;;;6.60;100.00;101784.34;4152943;28;20057;-78
2023/03/20 02:58:59;;;;;;;12.30;4.65;;;7.50;99.90;;;6.58;100.00;101780.16;4139507;28;20038;-78
2023/03/20 03:01:13;;;;;;;11.52;4.00;;;7.40;99.90;;;6.55;100.00;101770.72;4152548;28;20029;-78
2023/03/20 03:03:26;;;;;;;7.88;2.65;;;7.40;99.90;;;6.52;100.00;101767.47;4152641;28;20029;-78
2023/03/20 03:05:44;;;;;;;9.77;3.13;;;7.40;99.90;;;6.47;100.00;101767.81;4152837;28;20028;-78
2023/03/20 03:07:49;;;;;;;11.23;3.05;;;7.30;99.90;;;6.46;100.00;101776.59;4143449;28;20034;-78
2023/03/20 03:10:01;;;;;;;14.38;3.60;;;7.30;99.90;;;6.45;100.00;101767.06;4151322;28;20040;-78
2023/03/20 03:12:20;;;;;;;9.80;2.80;;;7.30;99.90;;;6.40;100.00;101763.91;4142929;28;20496;-78
2023/03/20 03:14:36;;;;;;;8.88;2.83;;;7.20;99.90;;;6.37;100.00;101761.50;4146981;28;20050;-78
2023/03/20 03:16:39;;;;;;;11.57;2.95;;;7.20;99.90;;;6.30;100.00;101760.22;4141765;28;20073;-79
2023/03/20 03:18:42;;;;;;;9.80;2.80;;;7.20;99.90;;;6.27;100.00;101757.84;4152379;28;20022;-78
2023/03/20 03:20:46;;;;;;;14.65;3.08;;;7.10;99.90;;;6.27;100.00;101759.63;4152706;28;20500;-78
2023/03/20 03:22:48;;;;;;;9.63;3.20;;;7.10;99.90;;;6.25;100.00;101762.34;4152403;28;20036;-78
2023/03/20 03:24:52;;;;;;;9.60;3.38;;;7.10;99.90;;;6.23;100.00;101761.59;4152423;28;20041;-78
2023/03/20 03:26:54;;;;;;;;;;;7.10;99.90;;;6.18;100.00;101757.63;4150536;28;20044;-78
2023/03/20 03:29:03;;;;;;;10.73;3.67;;;7.00;99.90;;;6.17;100.00;101758.56;4148110;28;19909;-79
2023/03/20 03:31:23;;;;;;;9.32;3.53;;;7.00;99.90;;;6.12;100.00;101757.06;4151800;28;20034;-78
2023/03/20 03:33:29;;;;;;;12.05;3.33;;;7.00;99.90;;;6.10;100.00;101751.09;4151722;28;20053;-79
2023/03/20 03:35:30;;;;;;;17.92;3.72;;;7.00;99.90;;;6.09;100.00;101754.66;4148939;28;20022;-78
2023/03/20 03:37:52;;;;;;;12.93;3.85;;;7.00;99.90;;;6.12;100.00;101769.34;4152267;28;20034;-78
2023/03/20 03:40:10;;;;;;;7.18;3.00;;;7.00;99.90;;;6.08;100.00;101758.22;4144565;28;20116;-78
2023/03/20 03:42:36;;;;;;;11.18;2.97;;;6.90;99.90;;;6.07;100.00;101759.16;4152252;28;20405;-79
2023/03/20 03:44:56;;;;;;;11.32;3.17;;;6.90;99.90;;;6.01;100.00;101756.94;4151562;28;20084;-78
2023/03/20 03:47:31;;;;;;;9.00;2.72;;;6.90;99.90;;;5.99;100.00;101763.25;4149793;28;20037;-78
2023/03/20 03:49:42;;;;;;;12.38;3.05;;;6.90;99.90;;;5.98;100.00;101764.16;4126946;28;20050;-78
2023/03/20 03:51:49;;;;;;;15.32;4.38;;;6.80;99.90;;;5.98;100.00;101765.00;4132475;28;20037;-78
2023/03/20 03:54:07;;;;;;;10.27;3.38;;;6.80;99.90;;;5.97;100.00;101762.50;4152278;28;20030;-78
2023/03/20 03:56:13;;;;;;;9.75;2.78;;;6.80;99.90;;;6.00;100.00;101764.94;4152207;28;20421;-79
2023/03/20 03:58:40;;;;;;;13.70;3.17;;;6.80;99.90;;;5.95;100.00;101765.22;4151817;28;20100;-78
2023/03/20 04:00:46;;;;;;;11.25;2.97;;;6.80;99.90;;;5.93;100.00;101761.88;4142541;28;20064;-78
2023/03/20 04:02:53;;;;;;;6.78;2.90;;;6.80;99.90;;;5.93;100.00;101771.50;4151954;28;20089;-78
2023/03/20 04:04:55;;;;;;;14.77;3.35;;;6.80;99.90;;;5.89;100.00;101765.63;4167816;28;20103;-78
2023/03/20 04:06:56;;;;;;;9.75;3.10;;;6.80;99.90;;;5.90;100.00;101766.47;4152058;28;20030;-78
2023/03/20 04:08:57;;;;;;;10.13;3.63;;;6.80;99.90;;;5.85;100.00;101760.66;4153124;28;20117;-78
2023/03/20 04:10:58;;;;;;;11.45;3.25;;;6.70;99.90;;;5.83;100.00;101754.66;4151707;28;20575;-79
2023/03/20 04:12:59;;;;;;;9.45;2.90;;;6.80;99.90;;;5.83;100.00;101760.75;4151612;28;20113;-79
2023/03/20 04:15:00;;;;;;;15.10;3.40;;;6.70;99.90;;;5.81;100.00;101756.56;4152692;28;20075;-79
2023/03/20 04:17:01;;;;;;;13.60;2.40;;;6.70;99.90;;;5.79;100.00;101755.84;4150193;28;20026;-78
2023/03/20 04:19:02;;;;;;;10.93;3.03;;;6.70;99.90;;;5.81;100.00;101751.31;4146584;28;20033;-79
2023/03/20 04:21:03;;;;;;;14.68;3.80;;;6.70;99.90;;;5.81;100.00;101757.41;4152779;28;20033;-79
2023/03/20 04:23:04;;;;;;;15.32;4.32;;;6.70;99.90;;;5.82;100.00;101760.88;4152811;28;20030;-78
2023/03/20 04:25:07;;;;;;;13.57;3.33;;;6.70;99.90;;;5.81;100.00;101753.94;4151589;28;20018;-78
2023/03/20 04:27:08;;;;;;;11.53;3.60;;;6.70;99.90;;;5.78;100.00;101757.59;4131900;28;20023;-78
2023/03/20 04:29:09;;;;;;;12.63;2.95;;;6.70;99.90;;;5.85;100.00;101763.28;4165850;28;20044;-78
2023/03/20 04:31:11;;;;;;;11.30;2.80;;;6.70;99.90;;;5.87;100.00;101761.44;4152520;28;20025;-78
2023/03/20 04:33:12;;;;;;;10.25;3.67;;;6.70;99.90;;;5.87;100.00;101758.81;4151355;28;20025;-78
2023/03/20 04:35:13;;;;;;;15.90;3.63;;;6.70;99.90;;;5.83;100.00;101757.28;4147451;28;20040;-79
2023/03/20 04:37:14;;;;;;;15.38;3.53;;;6.70;99.90;;;5.83;100.00;101750.28;4152416;28;20026;-78
2023/03/20 04:39:15;;;;;;;12.27;2.92;;;6.70;99.90;;;5.84;100.00;101751.13;4151462;28;20590;-79
2023/03/20 04:41:16;;;;;;;9.60;2.70;;;6.70;99.90;;;5.85;100.00;101758.94;4152600;28;20394;-79
2023/03/20 04:43:17;;;;;;;13.93;3.70;;;6.70;99.90;;;5.87;100.00;101764.06;4151338;28;20030;-79
2023/03/20 04:45:19;;;;;;;10.45;3.40;;;6.70;99.90;;;5.87;100.00;101758.81;4152367;28;20037;-78
2023/03/20 04:47:20;;;;;;;13.05;4.35;;;6.80;99.90;;;5.92;100.00;101759.34;4150757;28;20029;-78
2023/03/20 04:49:21;;;;;;;15.68;3.72;;;6.80;99.90;;;5.98;100.00;101761.56;4152366;28;20508;-80
2023/03/20 04:51:21;;;;;;;9.55;3.50;;;6.90;99.90;;;6.03;100.00;101765.53;4151149;28;20037;-80
2023/03/20 04:53:22;;;;;;;11.52;3.42;;;6.90;99.90;;;6.12;100.00;101761.50;4152389;28;20034;-80
2023/03/20 04:55:23;;;;;;;16.38;4.00;;;7.00;99.90;;;6.17;100.00;101759.41;4151262;28;20636;-80
2023/03/20 04:57:24;;;;;;;10.30;2.63;;;7.10;99.90;;;6.22;100.00;101759.06;4146160;28;20022;-80
2023/03/20 04:59:25;;;;;;;10.95;2.75;;;7.10;99.90;;;6.20;100.00;101753.09;4161406;28;20417;-80
2023/03/20 05:01:26;;;;;;;10.73;2.97;;;7.10;99.90;;;6.22;100.00;101759.06;4150757;28;20041;-78
2023/03/20 05:03:27;;;;;;;7.35;2.58;;;7.10;99.90;;;6.21;100.00;101765.28;4152395;28;20026;-78
2023/03/20 05:05:28;;;;;;;13.75;3.60;;;7.10;99.90;;;6.14;100.00;101754.38;4152283;28;20030;-78
2023/03/20 05:07:29;;;;;;;8.95;2.70;;;7.00;99.90;;;6.12;100.00;101767.56;4151022;28;20026;-79
2023/03/20 05:09:30;;;;;;;8.95;2.60;;;7.00;99.90;;;6.05;100.00;101755.81;4152095;28;20060;-78
2023/03/20 05:11:31;;;;;;;11.75;2.58;;;7.00;99.90;;;6.03;100.00;101759.50;4152197;28;20025;-79
2023/03/20 05:13:32;;;;;;;9.07;2.85;;;6.90;99.90;;;5.99;100.00;101761.47;4150930;28;20389;-78
2023/03/20 05:15:32;;;;;;;13.05;2.95;;;6.90;99.90;;;5.97;100.00;101762.50;4167475;28;20021;-78
2023/03/20 05:17:33;;;;;;;10.45;2.72;;;6.90;99.90;;;5.97;100.00;101762.50;4150759;28;20037;-78
2023/03/20 05:19:34;;;;;;;7.68;2.47;;;6.90;99.90;;;5.93;100.00;101758.41;4152194;28;20038;-78
2023/03/20 05:21:35;;;;;;;12.75;4.32;;;6.80;99.90;;;5.88;100.00;101752.66;4151142;28;20038;-78
2023/03/20 05:23:36;;;;;;;12.40;3.47;;;6.70;99.90;;;5.87;100.00;101756.19;4149077;28;20486;-78
2023/03/20 05:25:37;;;;;;;19.50;4.85;;;6.70;99.90;;;5.83;100.00;101759.91;4146222;28;20042;-79
2023/03/20 05:27:38;;;;;;;15.48;3.92;;;6.70;99.90;;;5.79;100.00;101758.44;4148294;28;20027;-79
2023/03/20 05:29:39;;;;;;;17.67;3.95;;;6.70;99.90;;;5.77;100.00;101761.16;4146293;28;20049;-79
2023/03/20 05:31:40;;;;;;;10.13;3.10;;;6.60;99.90;;;5.71;100.00;101758.94;4146873;28;20026;-78
2023/03/20 05:33:41;;;;;;;14.10;3.05;;;6.60;99.90;;;5.71;100.00;101753.69;4150368;28;20489;-78
2023/03/20 05:35:41;;;;;;;18.52;4.70;;;6.60;99.90;;;5.70;100.00;101756.44;4151848;28;20029;-78
2023/03/20 05:37:42;;;;;;;15.07;3.55;;;6.60;99.90;;;5.69;100.00;101749.50;4150762;28;20037;-78
2023/03/20 05:39:43;;;;;;;13.93;3.38;;;6.60;99.90;;;5.77;100.00;101755.06;4152062;28;20030;-78
2023/03/20 05:41:44;;;;;;;12.20;3.42;;;6.60;99.90;;;5.80;100.00;101754.88;4152034;28;20072;-79
2023/03/20 05:43:45;;;;;;;11.73;4.00;;;6.70;99.90;;;5.86;100.00;101760.59;4134424;28;20018;-78
2023/03/20 05:45:46;;;;;;;8.63;2.80;;;6.70;99.90;;;5.89;100.00;101765.63;4150682;28;20041;-79
2023/03/20 05:47:47;;;;;;;14.77;3.47;;;6.80;99.90;;;5.88;100.00;101758.72;4151976;28;20033;-79
2023/03/20 05:49:48;;;;;;;15.18;3.50;;;6.80;99.90;;;5.84;100.00;101757.22;4151850;28;20026;-79
2023/03/20 05:51:48;;;;;;;13.43;3.28;;;6.80;99.90;;;5.85;100.00;101758.06;4151667;28;20133;-79
2023/03/20 05:53:49;;;;;;;13.65;3.90;;;6.70;99.90;;;5.87;100.00;101756.19;4152010;28;20113;-78
2023/03/20 05:55:50;;;;;;;17.75;4.07;;;6.70;99.90;;;5.82;100.00;101758.25;4151946;28;20024;-79
2023/03/20 05:57:51;;;;;;;21.65;6.53;;;6.70;99.90;;;5.82;100.00;101758.25;4150700;28;20400;-78
2023/03/20 05:59:52;;;;;;;16.73;4.95;;;6.70;99.90;;;5.79;100.00;101758.44;4151957;28;20037;-78
2023/03/20 06:01:53;;;;;;;16.13;4.57;;;6.70;99.90;;;5.77;100.00;101760.31;4152981;28;20030;-79
2023/03/20 06:03:54;;;;;;;14.35;5.25;;;6.60;99.90;;;5.72;100.00;101752.78;4170077;28;20079;-78
2023/03/20 06:05:55;;;;;;;14.50;3.72;;;6.60;99.90;;;5.71;100.00;101742.38;4153653;28;20061;-79
2023/03/20 06:07:56;;;;;;;10.63;3.17;;;6.60;99.90;;;5.74;100.00;101748.25;4169972;28;20026;-78
2023/03/20 06:09:57;;;;;;;10.20;3.45;;;6.60;99.90;;;5.73;100.00;101749.22;4141700;28;20504;-78
2023/03/20 06:11:58;;;;;;;16.33;4.25;;;6.60;99.90;;;5.71;100.00;101740.63;4153638;28;20035;-78
2023/03/20 06:13:59;;;;;;;23.80;5.10;;;6.60;99.90;;;5.79;100.00;101748.81;4153365;28;20114;-78
2023/03/20 06:16:00;;;;;;;15.68;3.72;;;6.70;99.90;;;5.80;100.00;101754.88;4153143;28;20528;-78
2023/03/20 06:18:00;;;;;;;13.40;3.40;;;6.70;99.90;;;5.80;100.00;101752.25;4149437;28;20108;-79
2023/03/20 06:20:02;;;;;;;12.55;3.95;;;6.70;99.90;;;5.83;100.00;101759.91;4154589;28;20025;-79
2023/03/20 06:22:04;;;;;;;11.02;3.60;;;6.70;99.90;;;5.86;100.00;101762.34;4154719;28;20050;-79
2023/03/20 06:24:06;;;;;;;15.52;3.88;;;6.70;99.90;;;5.83;100.00;101750.28;4154488;28;20032;-79
2023/03/20 06:26:07;;;;;;;14.77;4.00;;;6.70;99.90;;;5.84;100.00;101751.97;4153395;28;20053;-79
2023/03/20 06:28:07;;;;;;;12.95;3.58;;;6.70;99.90;;;5.91;100.00;101752.44;4149718;28;20405;-79
2023/03/20 06:30:10;;;;;;;13.85;3.83;;;6.80;99.90;;;5.94;100.00;101762.72;4154408;28;20030;-78
2023/03/20 06:32:13;;;;;;;13.77;3.90;;;6.80;99.90;;;5.95;100.00;101764.38;4152396;28;20037;-79
2023/03/20 06:34:14;;;;;;;17.38;3.50;;;6.80;99.90;;;5.97;100.00;101759.91;4153335;28;20592;-79
2023/03/20 06:36:15;;;;;;;9.88;3.97;;;6.80;99.90;;;6.01;100.00;101766.59;4153260;28;20037;-79
2023/03/20 06:38:16;;;;;;;11.75;3.75;;;6.80;99.90;;;6.05;100.00;101765.44;4168770;28;20405;-79
2023/03/20 06:40:17;;;;;;;14.27;3.47;;;6.90;99.90;;;6.08;100.00;101765.25;4154296;28;20048;-79
2023/03/20 06:42:18;;;;;;;12.40;3.05;;;6.90;99.90;;;6.15;100.00;101770.94;4154320;28;20030;-78
2023/03/20 06:44:19;;;;;;;14.00;3.30;;;7.00;99.90;;;6.19;100.00;101772.38;4153079;28;20031;-78
2023/03/20 06:46:20;;;;;;;10.73;3.28;;;7.00;99.90;;;6.18;100.00;101760.25;4153986;28;20026;-78
2023/03/20 06:48:21;;;;;;;10.90;3.80;;;7.00;99.90;;;6.27;100.00;101765.72;4143176;28;20072;-78
2023/03/20 06:50:22;;;;;;;12.50;3.45;;;7.10;99.90;;;6.29;100.00;101766.44;4153424;28;20061;-79
2023/03/20 06:52:24;;;;;;;14.52;3.38;;;7.20;99.90;;;6.36;100.00;101766.88;4152972;28;20022;-79
2023/03/20 06:54:28;;;;;;;12.77;4.15;;;7.20;99.90;;;6.41;100.00;101762.97;4169121;28;20075;-80
2023/03/20 06:56:29;;;;;;;11.75;3.53;;;7.20;99.90;;;6.55;100.00;101759.41;4152986;28;20026;-79
2023/03/20 06:58:30;;;;;;;10.50;3.88;;;7.40;99.90;;;6.63;100.00;101755.31;4154011;28;20029;-79
2023/03/20 07:00:31;;;;;;;13.20;4.35;;;7.40;99.90;;;6.73;100.00;101770.41;4168889;28;20026;-80
2023/03/20 07:02:32;;;;;;;15.40;5.50;;;7.50;99.90;;;6.80;100.00;101766.44;4153805;28;20091;-79
2023/03/20 07:04:33;;;;;;;21.65;6.05;;;7.60;99.90;;;6.91;100.00;101774.38;4169185;28;20029;-80
2023/03/20 07:06:34;;;;;;;18.00;3.95;;;7.70;99.90;;;7.00;100.00;101769.31;4153496;28;20033;-78
2023/03/20 07:08:35;;;;;;;14.13;3.75;;;7.70;99.90;;;7.04;100.00;101764.72;4153900;28;20026;-79
2023/03/20 07:10:37;;;;;;;9.55;3.08;;;7.80;99.90;;;7.13;100.00;101772.78;4168843;28;20033;-79
2023/03/20 07:12:37;;;;;;;18.95;3.97;;;7.90;99.90;;;7.24;100.00;101758.88;4168569;28;20130;-78
2023/03/20 07:14:40;;;;;;;13.63;4.93;;;8.00;99.90;;;7.30;100.00;101761.06;4151827;28;20061;-78
2023/03/20 07:16:41;;;;;;;9.93;3.17;;;8.10;99.90;;;7.42;100.00;101778.56;4168489;28;20027;-78
2023/03/20 07:18:42;;;;;;;15.45;4.25;;;8.20;99.90;;;7.51;100.00;101762.13;4153868;28;20049;-79
2023/03/20 07:20:43;;;;;;;11.40;4.03;;;8.30;99.90;;;7.60;100.00;101764.09;4152580;28;20405;-78
2023/03/20 07:22:44;;;;;;;13.57;3.28;;;8.40;99.90;;;7.68;100.00;101761.75;4153538;28;20121;-78
2023/03/20 07:24:45;;;;;;;11.95;3.60;;;8.50;99.90;;;7.80;100.00;101765.25;4152465;28;20081;-79
2023/03/20 07:26:46;;;;;;;9.88;3.20;;;8.60;99.90;;;7.89;100.00;101755.84;4153545;28;20026;-78
2023/03/20 07:28:47;;;;;;;12.98;3.95;;;8.60;99.90;;;8.01;100.00;101761.03;4153523;28;20026;-79
2023/03/20 07:30:47;;;;;;;12.77;3.47;;;8.80;99.90;;;8.15;100.00;101762.66;4153039;28;20638;-78
2023/03/20 07:32:48;;;;;;;15.43;4.13;;;8.90;99.90;;;8.25;100.00;101759.19;4153257;28;20014;-78
2023/03/20 07:34:49;;;;;;;16.48;4.00;;;9.00;99.90;;;8.42;100.00;101771.09;4153449;28;20030;-79
2023/03/20 07:36:50;;;;;;;12.80;3.97;;;9.20;99.90;;;8.54;100.00;101758.81;4152147;28;20025;-79
2023/03/20 07:38:51;;;;;;;8.70;3.22;;;9.30;99.90;;;8.66;100.00;101763.94;4151571;28;20501;-80
2023/03/20 07:40:54;;;;;;;14.50;4.10;;;9.40;99.90;;;8.84;100.00;101762.50;4152243;28;20037;-79
2023/03/20 07:42:55;;;;;;;15.88;4.05;;;9.60;99.90;;;8.98;100.00;101768.50;4144983;28;20080;-79
2023/03/20 07:44:55;;;;;;;9.18;3.40;;;9.70;99.90;;;9.09;100.00;101769.31;4153220;28;20034;-79
2023/03/20 07:46:56;;;;;;;16.05;3.13;;;9.80;99.90;;;9.23;100.00;101762.94;4152827;28;20022;-79
2023/03/20 07:48:57;;;;;;;14.77;3.50;;;9.90;99.90;;;9.34;100.00;101762.94;4152086;28;20033;-79
2023/03/20 07:50:58;;;;;;;12.38;4.07;;;10.00;99.90;;;9.50;100.00;101762.53;4153190;28;20036;-79
2023/03/20 07:52:59;;;;;;;9.10;3.38;;;10.20;99.90;;;9.61;100.00;101765.97;4152797;28;20026;-80
2023/03/20 07:55:00;;;;;;;13.70;3.50;;;10.30;99.90;;;9.75;100.00;101762.19;4135496;28;20049;-80
2023/03/20 07:57:01;;;;;;;13.85;4.00;;;10.40;99.90;;;9.91;100.00;101766.09;4140112;28;20022;-80
2023/03/20 07:59:02;;;;;;;11.02;3.60;;;10.60;99.90;;;9.93;100.00;101765.97;4158891;28;20029;-79
2023/03/20 08:01:03;;;;;;;11.90;3.45;;;10.70;99.90;;;10.07;100.00;101770.06;4151107;28;20105;-80
2023/03/20 08:03:04;;;;;;;7.95;2.72;;;10.80;99.90;;;10.06;100.00;101768.44;4139449;28;20109;-80
2023/03/20 08:05:06;;;;;;;15.40;3.08;;;10.90;99.90;;;10.08;100.00;101777.88;4153064;28;20081;-79
2023/03/20 08:07:07;;;;;;;12.30;3.50;;;10.90;99.90;;;10.06;100.00;101768.44;4168235;28;20029;-79
2023/03/20 08:09:08;;;;;;;11.07;2.88;;;10.90;99.90;;;10.07;100.00;101778.00;4151910;28;20022;-79
2023/03/20 08:11:08;;;;;;;10.15;2.60;;;10.90;99.90;;;10.17;100.00;101778.94;4167894;28;20487;-79
2023/03/20 08:13:09;;;;;;;7.90;2.80;;;10.90;99.90;;;10.25;100.00;101769.41;4152972;28;20037;-80
2023/03/20 08:15:11;;;;;;;7.78;2.35;;;11.00;99.90;;;10.43;100.00;101777.56;4151506;28;20085;-80
2023/03/20 08:17:12;;;;;;;17.42;2.70;;;11.10;99.90;;;10.64;100.00;101774.91;4162087;28;20389;-80
2023/03/20 08:19:13;;;;;;;6.78;2.20;;;11.30;99.90;;;10.77;100.00;101781.66;4148083;28;20029;-79
2023/03/20 08:21:14;;;;;;;7.78;2.30;;;11.50;99.90;;;10.81;100.00;101785.69;4168069;28;20398;-79
2023/03/20 08:23:16;;;;;;;16.48;2.55;;;11.60;99.90;;;10.92;100.00;101795.34;4151340;28;20136;-80
2023/03/20 08:25:17;;;;;;;13.95;3.72;;;11.70;99.90;;;10.95;100.00;101782.72;4152474;28;20030;-80
2023/03/20 08:27:18;;;;;;;9.30;3.17;;;11.80;99.90;;;11.16;100.00;101800.28;4151722;28;20055;-80
2023/03/20 08:29:19;;;;;;;10.35;2.40;;;11.90;99.90;;;11.37;100.00;101801.06;4152686;28;20710;-80
2023/03/20 08:31:20;;;;;;;13.10;3.17;;;12.00;99.90;;;11.41;100.00;101794.53;4151182;28;20030;-80
2023/03/20 08:33:21;;;;;;;12.65;3.00;;;12.20;99.90;;;11.48;100.00;101793.84;4144211;28;20026;-80
2023/03/20 08:35:22;;;;;;;13.40;3.15;;;12.30;99.90;;;11.61;100.00;101788.31;4167783;28;20040;-80
2023/03/20 08:37:22;;;;;;;11.23;3.53;;;12.40;99.90;;;11.79;100.00;101794.63;4147729;28;20018;-80
2023/03/20 08:39:23;;;;;;;10.43;2.72;;;12.50;99.90;;;11.94;100.00;101789.75;4151421;28;20113;-80